createdAt,value
2022-08-03T00:00:48.748Z,26.70
2022-08-03T00:03:19.797Z,26.70
2022-08-03T00:06:04.785Z,26.70
2022-08-03T00:08:23.075Z,26.70
2022-08-03T00:10:54.198Z,26.70
2022-08-03T00:13:25.292Z,26.70
2022-08-03T00:15:56.709Z,26.70
2022-08-03T00:18:27.604Z,26.80
2022-08-03T00:20:58.620Z,26.80
2022-08-03T00:23:33.331Z,26.80
2022-08-03T00:26:01.639Z,26.90
2022-08-03T00:28:32.679Z,26.90
2022-08-03T00:31:03.515Z,27.00
2022-08-03T00:33:59.643Z,27.10
2022-08-03T00:36:07.144Z,27.10
2022-08-03T00:38:37.997Z,27.10
2022-08-03T00:41:08.917Z,27.20
2022-08-03T00:43:39.829Z,27.20
2022-08-03T00:46:10.566Z,27.20
2022-08-03T00:48:41.489Z,27.20
2022-08-03T00:51:12.681Z,27.30
2022-08-03T00:53:43.600Z,27.30
2022-08-03T00:56:17.018Z,27.30
2022-08-03T00:58:49.145Z,27.30
2022-08-03T01:01:19.870Z,27.30
2022-08-03T01:03:51.236Z,27.30
2022-08-03T01:06:24.382Z,27.30
2022-08-03T01:08:57.568Z,27.20
2022-08-03T01:11:30.761Z,27.30
2022-08-03T01:14:18.285Z,27.20
2022-08-03T01:16:38.451Z,27.30
2022-08-03T01:19:11.717Z,27.30
2022-08-03T01:21:45.320Z,27.30
2022-08-03T01:24:20.255Z,27.30
2022-08-03T01:26:53.980Z,27.30
2022-08-03T01:29:27.264Z,27.30
2022-08-03T01:32:59.697Z,27.30
2022-08-03T01:34:34.873Z,27.40
2022-08-03T01:37:08.105Z,27.40
2022-08-03T01:39:42.068Z,27.40
2022-08-03T01:42:15.210Z,27.50
2022-08-03T01:44:49.361Z,27.60
2022-08-03T01:47:23.256Z,27.60
2022-08-03T01:49:59.239Z,27.60
2022-08-03T01:52:32.499Z,27.70
2022-08-03T01:55:05.724Z,27.70
2022-08-03T01:58:06.315Z,27.70
2022-08-03T02:00:11.825Z,27.70
2022-08-03T02:02:45.210Z,27.80
2022-08-03T02:05:17.230Z,27.80
2022-08-03T02:07:50.329Z,27.80
2022-08-03T02:10:34.660Z,27.80
2022-08-03T02:12:56.223Z,27.80
2022-08-03T02:15:30.540Z,27.90
2022-08-03T02:18:02.740Z,27.90
2022-08-03T02:20:36.827Z,27.90
2022-08-03T02:23:10.316Z,28.10
2022-08-03T02:25:43.094Z,28.30
2022-08-03T02:28:16.512Z,28.60
2022-08-03T02:31:08.919Z,28.80
2022-08-03T02:33:42.275Z,29.00
2022-08-03T02:36:15.878Z,29.20
2022-08-03T02:38:48.832Z,29.30
2022-08-03T02:41:22.055Z,29.30
2022-08-03T02:44:06.054Z,29.40
2022-08-03T02:46:30.360Z,29.50
2022-08-03T02:49:40.789Z,29.60
2022-08-03T02:51:40.225Z,29.70
2022-08-03T02:54:13.178Z,29.60
2022-08-03T02:56:45.798Z,29.60
2022-08-03T02:59:17.446Z,29.50
2022-08-03T03:01:49.501Z,29.40
2022-08-03T03:04:21.550Z,29.40
2022-08-03T03:06:55.373Z,29.50
2022-08-03T03:09:40.393Z,29.50
2022-08-03T03:12:00.769Z,29.50
2022-08-03T03:14:33.782Z,29.40
2022-08-03T03:17:06.092Z,29.50
2022-08-03T03:19:40.410Z,29.70
2022-08-03T03:22:12.693Z,29.90
2022-08-03T03:24:45.346Z,30.00
2022-08-03T03:27:18.252Z,30.10
2022-08-03T03:29:49.513Z,30.10
2022-08-03T03:32:24.368Z,30.20
2022-08-03T03:34:56.699Z,30.20
2022-08-03T03:37:28.675Z,30.20
2022-08-03T03:39:59.537Z,30.10
2022-08-03T03:42:30.599Z,30.00
2022-08-03T03:45:01.988Z,30.10
2022-08-03T03:47:33.450Z,30.20
2022-08-03T03:50:06.363Z,30.40
2022-08-03T03:52:37.423Z,30.60
2022-08-03T03:55:08.841Z,30.80
2022-08-03T03:57:44.925Z,31.00
2022-08-03T04:00:18.199Z,31.10
2022-08-03T04:02:49.397Z,31.30
2022-08-03T04:05:21.635Z,31.30
2022-08-03T04:07:56.196Z,31.40
2022-08-03T04:10:30.840Z,31.40
2022-08-03T04:13:03.447Z,31.30
2022-08-03T04:15:35.650Z,31.20
2022-08-03T04:18:09.127Z,31.10
2022-08-03T04:20:41.495Z,30.90
2022-08-03T04:23:15.591Z,30.80
2022-08-03T04:25:48.505Z,30.80
2022-08-03T04:28:29.732Z,30.80
2022-08-03T04:30:55.525Z,30.90
2022-08-03T04:33:30.315Z,31.00
2022-08-03T04:36:03.850Z,31.10
2022-08-03T04:38:37.601Z,31.20
2022-08-03T04:41:09.677Z,31.30
2022-08-03T04:43:45.070Z,31.40
2022-08-03T04:46:16.841Z,31.50
2022-08-03T04:48:50.080Z,31.60
2022-08-03T04:51:21.229Z,31.60
2022-08-03T04:53:52.084Z,31.60
2022-08-03T04:56:23.847Z,31.50
2022-08-03T04:58:54.969Z,31.30
2022-08-03T05:01:26.011Z,31.20
2022-08-03T05:03:56.910Z,31.10
2022-08-03T05:06:27.662Z,31.00
2022-08-03T05:08:59.348Z,31.00
2022-08-03T05:11:30.748Z,30.90
2022-08-03T05:14:01.794Z,30.90
2022-08-03T05:16:32.591Z,31.00
2022-08-03T05:19:03.776Z,31.20
2022-08-03T05:21:52.564Z,31.40
2022-08-03T05:24:07.321Z,31.50
2022-08-03T05:26:38.397Z,31.40
2022-08-03T05:29:09.496Z,31.40
2022-08-03T05:31:40.316Z,31.30
2022-08-03T05:34:12.309Z,31.20
2022-08-03T05:36:43.664Z,31.20
2022-08-03T05:39:14.682Z,31.30
2022-08-03T05:41:48.741Z,31.40
2022-08-03T05:44:20.766Z,31.50
2022-08-03T05:46:51.428Z,31.60
2022-08-03T05:49:25.435Z,31.80
2022-08-03T05:52:08.632Z,32.00
2022-08-03T05:54:56.356Z,32.10
2022-08-03T05:57:02.398Z,32.30
2022-08-03T05:59:38.497Z,32.40
2022-08-03T06:02:08.902Z,32.50
2022-08-03T06:04:40.030Z,32.70
2022-08-03T06:07:11.819Z,32.70
2022-08-03T06:10:34.880Z,32.80
2022-08-03T06:12:15.628Z,32.80
2022-08-03T06:14:46.755Z,32.70
2022-08-03T06:17:17.744Z,32.90
2022-08-03T06:19:48.839Z,32.90
2022-08-03T06:22:19.881Z,32.90
2022-08-03T06:24:53.674Z,32.90
2022-08-03T06:27:36.822Z,32.90
2022-08-03T06:29:56.359Z,33.00
2022-08-03T06:32:27.428Z,33.00
2022-08-03T06:34:58.305Z,33.00
2022-08-03T06:37:30.077Z,33.00
2022-08-03T06:40:01.192Z,33.00
2022-08-03T06:42:32.112Z,32.90
2022-08-03T06:45:05.351Z,32.80
2022-08-03T06:47:36.065Z,32.70
2022-08-03T06:50:16.142Z,32.60
2022-08-03T06:52:41.446Z,32.60
2022-08-03T06:55:12.678Z,32.60
2022-08-03T06:57:43.635Z,32.60
2022-08-03T07:00:15.751Z,32.60
2022-08-03T07:02:46.741Z,32.60
2022-08-03T07:05:18.282Z,32.60
2022-08-03T07:07:50.833Z,32.50
2022-08-03T07:10:22.059Z,32.40
2022-08-03T07:12:56.586Z,32.40
2022-08-03T07:15:54.014Z,32.50
2022-08-03T07:17:58.053Z,32.60
2022-08-03T07:20:32.494Z,32.60
2022-08-03T07:23:01.859Z,32.70
2022-08-03T07:25:32.595Z,32.70
2022-08-03T07:28:03.631Z,32.70
2022-08-03T07:30:35.075Z,32.70
2022-08-03T07:33:05.913Z,32.70
2022-08-03T07:35:37.081Z,32.60
2022-08-03T07:38:08.360Z,32.60
2022-08-03T07:40:42.079Z,32.60
2022-08-03T07:43:11.451Z,32.50
2022-08-03T07:45:42.301Z,32.50
2022-08-03T07:48:13.352Z,32.50
2022-08-03T07:50:44.458Z,32.60
2022-08-03T07:53:15.730Z,32.60
2022-08-03T07:55:46.472Z,32.60
2022-08-03T07:58:23.978Z,32.60
2022-08-03T08:00:57.316Z,32.60
2022-08-03T08:03:28.423Z,32.50
2022-08-03T08:06:01.059Z,32.40
2022-08-03T08:08:33.222Z,32.40
2022-08-03T08:11:03.892Z,32.40
2022-08-03T08:13:35.510Z,32.50
2022-08-03T08:16:07.815Z,32.50
2022-08-03T08:18:38.897Z,32.60
2022-08-03T08:21:10.390Z,32.60
2022-08-03T08:23:43.717Z,32.50
2022-08-03T08:26:17.000Z,32.40
2022-08-03T08:28:47.486Z,32.30
2022-08-03T08:31:28.951Z,32.30
2022-08-03T08:34:04.025Z,32.20
2022-08-03T08:36:31.590Z,32.10
2022-08-03T08:39:02.778Z,32.00
2022-08-03T08:41:34.972Z,32.00
2022-08-03T08:44:07.748Z,31.90
2022-08-03T08:46:40.058Z,31.80
2022-08-03T08:49:13.419Z,31.80
2022-08-03T08:51:52.749Z,31.70
2022-08-03T08:54:34.419Z,31.60
2022-08-03T08:59:59.867Z,31.60
2022-08-03T09:02:32.382Z,31.50
2022-08-03T09:05:07.327Z,31.50
2022-08-03T09:07:36.389Z,31.50
2022-08-03T09:10:12.592Z,31.40
2022-08-03T09:12:43.470Z,31.40
2022-08-03T09:15:17.510Z,31.20
2022-08-03T09:17:51.080Z,31.20
2022-08-03T09:20:21.840Z,31.10
2022-08-03T09:22:55.838Z,31.10
2022-08-03T09:25:29.317Z,31.10
2022-08-03T09:28:02.664Z,31.00
2022-08-03T09:30:35.451Z,31.00
2022-08-03T09:33:08.604Z,31.10
2022-08-03T09:35:53.749Z,31.10
2022-08-03T09:38:17.141Z,31.20
2022-08-03T09:40:49.155Z,31.20
2022-08-03T09:43:21.133Z,31.20
2022-08-03T09:45:52.078Z,31.20
2022-08-03T09:48:25.744Z,31.30
2022-08-03T09:51:14.268Z,31.30
2022-08-03T09:53:31.934Z,31.40
2022-08-03T09:56:36.185Z,31.30
2022-08-03T09:58:39.230Z,31.30
2022-08-03T10:01:24.093Z,31.40
2022-08-03T10:04:02.984Z,31.30
2022-08-03T10:06:17.972Z,31.30
2022-08-03T10:08:49.668Z,31.20
2022-08-03T10:11:22.818Z,31.30
2022-08-03T10:13:58.028Z,31.20
2022-08-03T10:16:26.650Z,31.20
2022-08-03T10:18:58.890Z,31.10
2022-08-03T10:21:32.152Z,30.90
2022-08-03T10:24:05.911Z,30.60
2022-08-03T10:26:39.519Z,30.30
2022-08-03T10:29:14.026Z,30.00
2022-08-03T10:31:57.318Z,29.60
2022-08-03T10:34:22.102Z,29.40
2022-08-03T10:36:55.337Z,29.10
2022-08-03T10:39:28.736Z,28.90
2022-08-03T10:42:02.910Z,28.80
2022-08-03T10:44:35.642Z,28.40
2022-08-03T10:47:07.911Z,28.10
2022-08-03T10:49:38.979Z,27.90
2022-08-03T10:52:13.720Z,27.70
2022-08-03T10:54:46.264Z,27.50
2022-08-03T10:57:29.873Z,27.40
2022-08-03T10:59:55.565Z,27.30
2022-08-03T11:02:27.574Z,27.30
2022-08-03T11:05:00.871Z,27.30
2022-08-03T11:07:31.880Z,27.40
2022-08-03T11:10:03.980Z,27.40
2022-08-03T11:12:36.568Z,27.40
2022-08-03T11:15:09.987Z,27.40
2022-08-03T11:17:46.364Z,27.40
2022-08-03T11:20:13.988Z,27.40
2022-08-03T11:22:47.687Z,27.40
2022-08-03T11:25:53.155Z,27.30
2022-08-03T11:27:55.556Z,27.30
2022-08-03T11:30:27.816Z,27.30
2022-08-03T11:33:01.067Z,27.30
2022-08-03T11:35:36.306Z,27.30
2022-08-03T11:38:09.243Z,27.30
2022-08-03T11:40:42.687Z,27.30
2022-08-03T11:43:20.285Z,27.30
2022-08-03T11:45:53.786Z,27.30
2022-08-03T11:48:25.270Z,27.30
2022-08-03T11:50:56.200Z,27.30
2022-08-03T11:53:27.116Z,27.30
2022-08-03T11:56:00.615Z,27.30
2022-08-03T11:59:01.153Z,27.30
2022-08-03T12:01:11.158Z,27.30
2022-08-03T12:03:41.868Z,27.30
2022-08-03T12:06:14.616Z,27.30
2022-08-03T12:12:04.583Z,27.30
2022-08-03T12:14:50.980Z,27.30
2022-08-03T12:17:08.366Z,27.30
2022-08-03T12:19:42.148Z,27.30
2022-08-03T12:22:13.699Z,27.30
2022-08-03T12:24:47.549Z,27.30
2022-08-03T12:27:20.517Z,27.30
2022-08-03T12:29:58.686Z,27.30
2022-08-03T12:32:28.239Z,27.30
2022-08-03T12:35:02.290Z,27.30
2022-08-03T12:37:34.293Z,27.30
2022-08-03T12:40:10.784Z,27.40
2022-08-03T12:42:42.474Z,27.40
2022-08-03T12:45:16.132Z,27.40
2022-08-03T12:47:49.920Z,27.40
2022-08-03T12:50:23.422Z,27.40
2022-08-03T12:52:54.246Z,27.40
2022-08-03T12:55:26.583Z,27.50
2022-08-03T12:57:57.675Z,27.50
2022-08-03T13:00:31.387Z,27.50
2022-08-03T13:03:41.962Z,27.50
2022-08-03T13:05:38.723Z,27.40
2022-08-03T13:08:12.077Z,27.50
2022-08-03T13:10:43.939Z,27.50
2022-08-03T13:13:15.397Z,27.40
2022-08-03T13:15:48.058Z,27.50
2022-08-03T13:18:19.109Z,27.50
2022-08-03T13:20:50.013Z,27.50
2022-08-03T13:23:22.268Z,27.50
2022-08-03T13:25:55.390Z,27.50
2022-08-03T13:28:26.804Z,27.40
2022-08-03T13:30:57.742Z,27.40
2022-08-03T13:33:30.594Z,27.40
2022-08-03T13:36:01.642Z,27.40
2022-08-03T13:41:22.373Z,27.50
2022-08-03T13:44:12.070Z,27.50
2022-08-03T13:46:28.175Z,27.50
2022-08-03T13:48:59.156Z,27.50
2022-08-03T13:51:30.118Z,27.50
2022-08-03T13:54:01.264Z,27.60
2022-08-03T13:56:33.060Z,27.50
2022-08-03T13:59:04.343Z,27.60
2022-08-03T14:01:54.419Z,27.60
2022-08-03T14:04:21.799Z,27.60
2022-08-03T14:06:40.027Z,27.60
2022-08-03T14:09:12.125Z,27.60
2022-08-03T14:12:07.024Z,27.50
2022-08-03T14:14:16.235Z,27.50
2022-08-03T14:16:47.110Z,27.50
2022-08-03T14:19:19.262Z,27.40
2022-08-03T14:21:52.720Z,27.50
2022-08-03T14:24:23.874Z,27.50
2022-08-03T14:26:58.440Z,27.40
2022-08-03T14:29:26.811Z,27.40
2022-08-03T14:32:09.630Z,27.40
2022-08-03T14:34:29.887Z,27.40
2022-08-03T14:37:00.688Z,27.40
2022-08-03T14:39:58.281Z,27.40
2022-08-03T14:42:03.839Z,27.40
2022-08-03T14:44:34.621Z,27.40
2022-08-03T14:47:05.500Z,27.40
2022-08-03T14:50:36.251Z,27.40
2022-08-03T14:52:09.105Z,27.40
2022-08-03T14:54:39.816Z,27.40
2022-08-03T14:57:10.709Z,27.40
2022-08-03T14:59:56.358Z,27.40
2022-08-03T15:02:23.314Z,27.40
2022-08-03T15:04:47.135Z,27.40
2022-08-03T15:07:17.949Z,27.40
2022-08-03T15:09:49.004Z,27.40
2022-08-03T15:12:19.951Z,27.40
2022-08-03T15:14:54.024Z,27.40
2022-08-03T15:17:25.035Z,27.50
2022-08-03T15:20:02.417Z,27.40
2022-08-03T15:22:34.698Z,27.40
2022-08-03T15:25:00.563Z,27.40
2022-08-03T15:27:31.213Z,27.50
2022-08-03T15:30:05.333Z,27.50
2022-08-03T15:32:35.236Z,27.40
2022-08-03T15:35:06.348Z,27.40
2022-08-03T15:37:37.092Z,27.50
2022-08-03T15:40:11.212Z,27.40
2022-08-03T15:42:43.568Z,27.50
2022-08-03T15:45:14.722Z,27.40
2022-08-03T15:47:46.901Z,27.40
2022-08-03T15:50:18.148Z,27.50
2022-08-03T15:52:53.268Z,27.40
2022-08-03T15:55:27.127Z,27.40
2022-08-03T15:59:03.876Z,27.40
2022-08-03T16:00:33.359Z,27.40
2022-08-03T16:03:03.987Z,27.40
2022-08-03T16:08:30.281Z,27.40
2022-08-03T16:11:02.000Z,27.40
2022-08-03T16:14:11.960Z,27.40
2022-08-03T16:16:49.117Z,27.40
2022-08-03T16:19:15.552Z,27.40
2022-08-03T16:21:57.288Z,27.40
2022-08-03T16:24:28.349Z,27.40
2022-08-03T16:27:00.948Z,27.40
2022-08-03T16:29:35.874Z,27.40
2022-08-03T16:32:09.519Z,27.40
2022-08-03T16:34:41.609Z,27.40
2022-08-03T16:37:37.194Z,27.40
2022-08-03T16:39:45.522Z,27.40
2022-08-03T16:42:18.912Z,27.40
2022-08-03T16:44:51.376Z,27.40
2022-08-03T16:47:22.774Z,27.30
2022-08-03T16:49:56.410Z,27.30
2022-08-03T16:52:27.258Z,27.30
2022-08-03T16:55:01.521Z,27.30
2022-08-03T16:57:58.601Z,27.30
2022-08-03T17:00:09.812Z,27.20
2022-08-03T17:02:48.244Z,27.10
2022-08-03T17:05:14.759Z,27.10
2022-08-03T17:07:50.643Z,27.00
2022-08-03T17:10:22.061Z,26.90
2022-08-03T17:12:53.984Z,26.80
2022-08-03T17:15:38.389Z,26.70
2022-08-03T17:18:00.856Z,26.60
2022-08-03T17:20:35.550Z,26.50
2022-08-03T17:23:34.600Z,26.30
2022-08-03T17:26:02.489Z,26.30
2022-08-03T17:28:50.422Z,26.20
2022-08-03T17:31:23.316Z,26.10
2022-08-03T17:33:54.628Z,26.00
2022-08-03T17:36:41.898Z,25.80
2022-08-03T17:39:01.911Z,25.80
2022-08-03T17:41:36.169Z,25.80
2022-08-03T17:44:15.647Z,25.80
2022-08-03T17:46:43.414Z,25.80
2022-08-03T17:49:24.522Z,25.80
2022-08-03T17:51:52.969Z,25.70
2022-08-03T17:54:36.944Z,25.70
2022-08-03T17:57:22.299Z,25.70
2022-08-03T17:59:52.151Z,25.70
2022-08-03T18:02:30.311Z,25.70
2022-08-03T18:05:00.695Z,25.70
2022-08-03T18:07:41.740Z,25.70
2022-08-03T18:10:15.425Z,25.80
2022-08-03T18:12:51.885Z,25.70
2022-08-03T18:15:26.516Z,25.70
2022-08-03T18:23:06.583Z,25.80
2022-08-03T18:25:49.368Z,25.80
2022-08-03T18:28:18.886Z,25.80
2022-08-03T18:30:53.336Z,25.80
2022-08-03T18:34:18.817Z,25.80
2022-08-03T18:35:58.171Z,25.80
2022-08-03T18:38:34.436Z,25.80
2022-08-03T18:41:17.312Z,25.70
2022-08-03T18:44:07.811Z,25.80
2022-08-03T18:46:23.800Z,25.70
2022-08-03T18:48:56.970Z,25.70
2022-08-03T18:54:09.334Z,25.70
2022-08-03T18:56:44.211Z,25.70
2022-08-03T18:59:17.830Z,25.70
2022-08-03T19:01:58.617Z,25.70
2022-08-03T19:04:29.563Z,25.70
2022-08-03T19:07:04.069Z,25.70
2022-08-03T19:09:39.733Z,25.70
2022-08-03T19:12:32.300Z,25.60
2022-08-03T19:14:48.946Z,25.60
2022-08-03T19:17:21.619Z,25.60
2022-08-03T19:19:53.849Z,25.60
2022-08-03T19:22:26.271Z,25.60
2022-08-03T19:24:59.154Z,25.60
2022-08-03T19:27:32.788Z,25.70
2022-08-03T19:30:14.125Z,25.60
2022-08-03T19:32:39.851Z,25.60
2022-08-03T19:35:19.086Z,25.60
2022-08-03T19:37:47.721Z,25.60
2022-08-03T19:40:19.836Z,25.60
2022-08-03T19:42:54.917Z,25.60
2022-08-03T19:46:04.996Z,25.60
2022-08-03T19:48:05.665Z,25.60
2022-08-03T19:50:37.507Z,25.50
2022-08-03T19:53:12.108Z,25.60
2022-08-03T19:55:47.500Z,25.60
2022-08-03T19:58:28.411Z,25.60
2022-08-03T20:00:52.234Z,25.60
2022-08-03T20:03:27.125Z,25.60
2022-08-03T20:06:00.490Z,25.50
2022-08-03T20:08:31.707Z,25.50
2022-08-03T20:11:03.274Z,25.50
2022-08-03T20:13:39.731Z,25.50
2022-08-03T20:16:11.769Z,25.50
2022-08-03T20:19:01.508Z,25.50
2022-08-03T20:21:35.433Z,25.50
2022-08-03T20:24:23.885Z,25.50
2022-08-03T20:26:42.324Z,25.50
2022-08-03T20:29:16.188Z,25.50
2022-08-03T20:31:47.224Z,25.50
2022-08-03T20:34:21.035Z,25.50
2022-08-03T20:37:06.172Z,25.50
2022-08-03T20:39:32.179Z,25.50
2022-08-03T20:42:05.074Z,25.50
2022-08-03T20:44:36.323Z,25.40
2022-08-03T20:47:09.762Z,25.50
2022-08-03T20:49:46.210Z,25.50
2022-08-03T20:54:49.259Z,25.50
2022-08-03T20:57:20.888Z,25.50
2022-08-03T20:59:52.351Z,25.50
2022-08-03T21:02:30.496Z,25.50
2022-08-03T21:04:58.182Z,25.50
2022-08-03T21:08:03.900Z,25.50
2022-08-03T21:10:10.058Z,25.50
2022-08-03T21:12:43.469Z,25.50
2022-08-03T21:13:00.575Z,25.70
2022-08-03T21:13:04.252Z,25.80
2022-08-03T21:13:04.278Z,25.80
2022-08-03T21:13:07.593Z,25.50
2022-08-03T21:16:03.304Z,25.50
2022-08-03T21:17:51.916Z,25.50
2022-08-03T21:20:25.976Z,25.60
2022-08-03T21:22:59.617Z,25.60
2022-08-03T21:25:33.236Z,25.50
2022-08-03T21:28:10.128Z,25.50
2022-08-03T21:30:41.760Z,25.60
2022-08-03T21:33:16.014Z,25.60
2022-08-03T21:35:49.376Z,25.50
2022-08-03T21:38:20.757Z,25.50
2022-08-03T21:40:56.817Z,25.50
2022-08-03T21:43:28.646Z,25.50
2022-08-03T21:46:03.271Z,25.50
2022-08-03T21:48:37.303Z,25.50
2022-08-03T21:51:10.582Z,25.50
2022-08-03T21:54:03.900Z,25.40
2022-08-03T21:56:18.384Z,25.40
2022-08-03T21:58:53.124Z,25.40
2022-08-03T22:01:28.624Z,25.40
2022-08-03T22:04:02.185Z,25.40
2022-08-03T22:06:34.312Z,25.40
2022-08-03T22:09:06.976Z,25.40
2022-08-03T22:11:40.520Z,25.40
2022-08-03T22:14:12.217Z,25.40
2022-08-03T22:16:43.776Z,25.40
2022-08-03T22:19:14.703Z,25.40
2022-08-03T22:21:47.116Z,25.40
2022-08-03T22:24:23.966Z,25.40
2022-08-03T22:26:59.590Z,25.40
2022-08-03T22:29:30.645Z,25.40
2022-08-03T22:32:01.908Z,25.40
2022-08-03T22:34:33.958Z,25.40
2022-08-03T22:37:10.937Z,25.40
2022-08-03T22:39:42.956Z,25.40
2022-08-03T22:42:14.628Z,25.30
2022-08-03T22:44:46.417Z,25.40
2022-08-03T22:47:22.799Z,25.30
2022-08-03T22:50:33.577Z,25.30
2022-08-03T22:52:25.916Z,25.30
2022-08-03T22:54:57.387Z,25.30
2022-08-03T22:57:28.837Z,25.30
2022-08-03T23:00:01.341Z,25.40
2022-08-03T23:02:33.915Z,25.30
2022-08-03T23:05:07.316Z,25.30
2022-08-03T23:07:41.493Z,25.40
2022-08-03T23:10:14.753Z,25.40
2022-08-03T23:12:47.955Z,25.40
2022-08-03T23:15:19.910Z,25.40
2022-08-03T23:17:57.620Z,25.40
2022-08-03T23:20:29.022Z,25.30
2022-08-03T23:23:05.188Z,25.30
2022-08-03T23:25:41.017Z,25.40
2022-08-03T23:28:10.548Z,25.40
2022-08-03T23:30:41.586Z,25.40
2022-08-03T23:33:15.242Z,25.40
2022-08-03T23:36:20.005Z,25.40
2022-08-03T23:38:23.294Z,25.50
2022-08-03T23:40:55.289Z,25.50
2022-08-03T23:43:45.139Z,25.50
2022-08-03T23:46:03.137Z,25.50
2022-08-03T23:48:35.005Z,25.50
2022-08-03T23:51:08.178Z,25.50
2022-08-03T23:53:40.658Z,25.60
2022-08-03T23:56:13.132Z,25.50
2022-08-03T23:58:46.834Z,25.60
